Terminal Aerodrome Forecast
Issued by NWS Des Moines, IA

Home | Current Version | Previous Version | Text Only | Print | Product List | Glossary On
Versions: 1 2 3 4 5 6 7 8 9 10 11 12 13 14 15 16 17 18 19 20 21 22 23
000
FTUS43 KDMX 312328
TAFALO
TAF
KALO 312328Z 0100/0124 24005KT 2SM SHRA BKN025 BKN040
     FM010100 21004KT P6SM SCT050
     FM010700 VRB03KT 1SM BR FEW110
     FM011200 VRB03KT P6SM FEW250
     FM011700 27012G16KT P6SM SCT060=

USA.gov is the U.S. government's official web portal to all federal, state and local government web resources and services.